Time;durP1;ratioP1;P1;durP2;ratioP2;P2;SDS_P1;SDS_P2;PMS_P1;PMS_P2;Temp;Humidity;BMP_temperature;BMP_pressure;BME280_temperature;BME280_humidity;BME280_pressure;Samples;Min_cycle;Max_cycle;Signal;HPM_P1;HPM_P2
2022/10/21 00:00:58;;;;;;;;;;;;;;;14.05;93.25;100763.47;5029709;28;19940;-59
2022/10/21 00:03:24;;;;;;;;;;;;;;;14.02;93.70;100760.38;5032314;28;20561;-59
2022/10/21 00:05:49;;;;;;;;;;;;;;;14.01;93.64;100759.56;5026681;28;19924;-58
2022/10/21 00:08:15;;;;;;;;;;;;;;;14.00;93.51;100754.41;5032971;28;19991;-59
2022/10/21 00:10:40;;;;;;;;;;;;;;;14.00;93.43;100749.06;5031231;28;19943;-57
2022/10/21 00:13:05;;;;;;;;;;;;;;;14.01;93.38;100742.72;5030174;28;20391;-57
2022/10/21 00:15:30;;;;;;;;;;;;;;;14.02;93.24;100739.84;5029025;28;20011;-59
2022/10/21 00:17:55;;;;;;;;;;;;;;;14.01;93.10;100740.03;5026911;28;19917;-58
2022/10/21 00:20:21;;;;;;;;;;;;;;;13.99;93.34;100739.41;5025169;28;20407;-59
2022/10/21 00:22:46;;;;;;;;;;;;;;;13.99;93.01;100737.56;5028894;28;19917;-59
2022/10/21 00:25:11;;;;;;;;;;;;;;;14.00;93.06;100735.72;5030994;28;19925;-59
2022/10/21 00:27:36;;;;;;;;;;;;;;;13.99;92.89;100729.56;5025611;28;20368;-59
2022/10/21 00:30:02;;;;;;;;;;;;;;;13.99;93.09;100718.88;5028733;28;19917;-58
2022/10/21 00:32:27;;;;;;;;;;;;;;;13.98;93.10;100719.06;5029986;28;20012;-57
2022/10/21 00:34:53;;;;;;;;;;;;;;;13.96;93.11;100713.94;5030438;28;19998;-59
2022/10/21 00:37:18;;;;;;;;;;;;;;;13.97;93.26;100725.44;5030845;28;19968;-57
2022/10/21 00:39:44;;;;;;;;;;;;;;;13.91;93.49;100711.03;5027902;28;19975;-57
2022/10/21 00:42:14;;;;;;;;;;;;;;;13.97;93.23;100715.56;5034343;28;19913;-59
2022/10/21 00:44:40;;;;;;;;;;;;;;;13.95;92.98;100714.94;5028475;28;19917;-59
2022/10/21 00:47:08;;;;;;;;;;;;;;;13.97;93.32;100720.09;5033350;28;20051;-59
2022/10/21 00:49:39;;;;;;;;;;;;;;;13.97;93.13;100720.09;5033348;28;19924;-59
2022/10/21 00:52:07;;;;;;;;;;;;;;;13.96;93.32;100721.94;5029380;28;19921;-59
2022/10/21 00:54:33;;;;;;;;;;;;;;;13.97;93.27;100722.75;5034649;28;19917;-58
2022/10/21 00:56:58;;;;;;;;;;;;;;;13.95;93.22;100715.78;5030060;28;19917;-59
2022/10/21 00:59:25;;;;;;;;;;;;;;;13.95;93.19;100717.63;5027948;28;20453;-59
2022/10/21 01:01:50;;;;;;;;;;;;;;;13.92;93.17;100713.50;5022761;28;20007;-59
2022/10/21 01:04:15;;;;;;;;;;;;;;;13.92;93.45;100710.00;5025261;28;20043;-59
2022/10/21 01:06:41;;;;;;;;;;;;;;;13.92;93.42;100704.66;5032500;28;20470;-59
2022/10/21 01:09:06;;;;;;;;;;;;;;;13.90;93.55;100704.88;5029823;28;19917;-59
2022/10/21 01:11:33;;;;;;;;;;;;;;;13.89;93.42;100692.53;5027146;28;19921;-59
2022/10/21 01:14:17;;;;;;;;;;;;;;;13.88;93.29;100684.72;5029142;28;19917;-59
2022/10/21 01:17:00;;;;;;;;;;;;;;;13.85;93.66;100680.56;5030022;28;20450;-59
2022/10/21 01:19:36;;;;;;;;;;;;;;;13.83;93.85;100685.28;5029075;28;19916;-59
2022/10/21 01:22:16;;;;;;;;;;;;;;;13.82;93.66;100691.66;5027508;28;19917;-59
2022/10/21 01:24:56;;;;;;;;;;;;;;;13.81;93.50;100679.31;5028140;28;20474;-59
2022/10/21 01:27:39;;;;;;;;;;;;;;;13.80;93.47;100677.66;5029027;28;19925;-58
2022/10/21 01:30:24;;;;;;;;;;;;;;;13.79;93.92;100667.19;5026262;28;19925;-59
2022/10/21 01:33:06;;;;;;;;;;;;;;;13.77;93.68;100669.22;5026053;28;19936;-59
2022/10/21 01:35:37;;;;;;;;;;;;;;;13.76;93.97;100671.06;5028374;28;19921;-59
2022/10/21 01:38:02;;;;;;;;;;;;;;;13.74;93.91;100662.44;5026485;28;19925;-58
2022/10/21 01:40:33;;;;;;;;;;;;;;;13.74;93.76;100662.44;5026380;28;19995;-59
2022/10/21 01:43:02;;;;;;;;;;;;;;;13.72;93.80;100655.66;5026415;28;19995;-59
2022/10/21 01:45:27;;;;;;;;;;;;;;;13.69;94.17;100659.53;5027597;28;19917;-59
2022/10/21 01:47:55;;;;;;;;;;;;;;;13.68;93.67;100649.88;5025549;28;20121;-58
2022/10/21 01:50:29;;;;;;;;;;;;;;;13.67;93.79;100647.41;5025976;28;19967;-58
2022/10/21 01:52:56;;;;;;;;;;;;;;;13.65;93.93;100636.94;5032676;28;19921;-59
2022/10/21 01:55:24;;;;;;;;;;;;;;;13.64;94.35;100630.78;5030280;28;20411;-58
2022/10/21 01:57:52;;;;;;;;;;;;;;;13.63;94.04;100631.81;5028608;28;20474;-59
2022/10/21 02:00:18;;;;;;;;;;;;;;;13.63;94.22;100630.97;5029369;28;19923;-59
2022/10/21 02:02:45;;;;;;;;;;;;;;;13.62;93.99;100627.47;5015569;28;19996;-59
2022/10/21 02:05:26;;;;;;;;;;;;;;;13.62;94.21;100632.00;5024725;28;19924;-58
2022/10/21 02:07:51;;;;;;;;;;;;;;;13.61;94.04;100625.84;5029152;28;19917;-59
2022/10/21 02:10:17;;;;;;;;;;;;;;;13.61;94.25;100619.69;5026632;28;19924;-59
2022/10/21 02:12:44;;;;;;;;;;;;;;;13.59;94.21;100621.72;5027146;28;19932;-59
2022/10/21 02:15:11;;;;;;;;;;;;;;;13.59;94.14;100619.06;5025655;28;20476;-59
2022/10/21 02:17:38;;;;;;;;;;;;;;;13.58;94.06;100620.03;5028737;28;20300;-59
2022/10/21 02:20:07;;;;;;;;;;;;;;;13.57;94.11;100627.22;5026192;28;19970;-59
2022/10/21 02:22:33;;;;;;;;;;;;;;;13.56;94.15;100620.22;5031225;28;20003;-59
2022/10/21 02:25:00;;;;;;;;;;;;;;;13.55;94.32;100617.75;5029873;28;20273;-59
2022/10/21 02:27:26;;;;;;;;;;;;;;;13.53;94.48;100620.63;5028208;28;19917;-59
2022/10/21 02:29:53;;;;;;;;;;;;;;;13.51;94.76;100603.16;5024746;28;19932;-59
2022/10/21 02:32:27;;;;;;;;;;;;;;;13.48;94.66;100596.38;5028036;28;19927;-59
2022/10/21 02:35:02;;;;;;;;;;;;;;;13.45;94.65;100596.78;5028652;28;19971;-59
2022/10/21 02:37:42;;;;;;;;;;;;;;;13.47;94.21;100599.25;5028423;28;19925;-58
2022/10/21 02:40:14;;;;;;;;;;;;;;;13.45;94.46;100606.63;5025463;28;20019;-59
2022/10/21 02:42:43;;;;;;;;;;;;;;;13.43;94.40;100604.16;5026427;28;19917;-58
2022/10/21 02:45:08;;;;;;;;;;;;;;;13.44;94.09;100604.97;5024621;28;20304;-59
2022/10/21 02:47:37;;;;;;;;;;;;;;;13.42;94.28;100607.84;5026310;28;19913;-58
2022/10/21 02:50:02;;;;;;;;;;;;;;;13.41;94.32;100608.88;5025118;28;19925;-59
2022/10/21 02:52:27;;;;;;;;;;;;;;;13.39;94.29;100610.09;5021299;28;19929;-59
2022/10/21 02:54:53;;;;;;;;;;;;;;;13.38;94.07;100614.59;5027127;28;20006;-59
2022/10/21 02:57:18;;;;;;;;;;;;;;;13.37;94.12;100612.13;5026553;28;19917;-58
2022/10/21 02:59:43;;;;;;;;;;;;;;;13.37;94.33;100606.78;5027730;28;19963;-58
2022/10/21 03:02:09;;;;;;;;;;;;;;;13.36;94.42;100602.47;5035894;28;19924;-59
2022/10/21 03:04:34;;;;;;;;;;;;;;;13.35;94.44;100595.50;5026400;28;19917;-59
2022/10/21 03:06:59;;;;;;;;;;;;;;;13.33;94.62;100591.16;5027559;28;19921;-59
2022/10/21 03:09:24;;;;;;;;;;;;;;;13.32;94.20;100584.19;5026381;28;20534;-59
2022/10/21 03:11:49;;;;;;;;;;;;;;;13.31;94.34;100582.53;5026177;28;19925;-59
2022/10/21 03:14:15;;;;;;;;;;;;;;;13.30;94.67;100583.56;5023674;28;20340;-59
2022/10/21 03:16:40;;;;;;;;;;;;;;;13.29;94.47;100587.22;5027198;28;19996;-58
2022/10/21 03:19:05;;;;;;;;;;;;;;;13.29;94.93;100587.22;5024909;28;19914;-59
2022/10/21 03:21:30;;;;;;;;;;;;;;;13.26;94.51;100578.78;5022748;28;19917;-59
2022/10/21 03:23:55;;;;;;;;;;;;;;;13.24;94.28;100580.81;5027891;28;19945;-59
2022/10/21 03:26:21;;;;;;;;;;;;;;;13.22;94.38;100581.03;5027559;28;19956;-59
2022/10/21 03:28:46;;;;;;;;;;;;;;;13.21;94.22;100584.72;5026611;28;19974;-59
2022/10/21 03:31:11;;;;;;;;;;;;;;;13.19;94.33;100594.75;5024162;28;19929;-59
2022/10/21 03:33:36;;;;;;;;;;;;;;;13.19;94.31;100591.25;5026092;28;19970;-59
2022/10/21 03:36:01;;;;;;;;;;;;;;;13.16;94.16;100594.28;5025863;28;20628;-58
2022/10/21 03:38:26;;;;;;;;;;;;;;;13.15;94.63;100582.78;5027156;28;20016;-59
2022/10/21 03:40:52;;;;;;;;;;;;;;;13.14;94.77;100591.81;5024036;28;19928;-59
2022/10/21 03:43:17;;;;;;;;;;;;;;;13.12;94.80;100591.19;5027670;28;20003;-59
2022/10/21 03:45:42;;;;;;;;;;;;;;;13.11;94.72;100586.88;5027859;28;19917;-59
2022/10/21 03:48:07;;;;;;;;;;;;;;;13.10;94.42;100590.56;5026712;28;19964;-59
2022/10/21 03:50:33;;;;;;;;;;;;;;;13.09;94.71;100580.09;5029713;28;20430;-59
2022/10/21 03:52:58;;;;;;;;;;;;;;;13.07;94.55;100574.13;5029976;28;19929;-59
2022/10/21 03:55:24;;;;;;;;;;;;;;;13.06;94.60;100580.47;5032004;28;20003;-58
2022/10/21 03:57:49;;;;;;;;;;;;;;;13.06;94.48;100586.63;5031279;28;19988;-59
2022/10/21 04:00:14;;;;;;;;;;;;;;;13.03;94.45;100577.19;5023044;28;19917;-59
2022/10/21 04:02:40;;;;;;;;;;;;;;;13.02;94.33;100580.84;5022449;28;19917;-59
2022/10/21 04:05:05;;;;;;;;;;;;;;;13.01;94.53;100576.53;5029543;28;19924;-59
2022/10/21 04:07:30;;;;;;;;;;;;;;;12.98;94.37;100579.56;5032591;28;20339;-59
2022/10/21 04:09:55;;;;;;;;;;;;;;;12.96;94.51;100573.59;5029852;28;19932;-59
2022/10/21 04:12:20;;;;;;;;;;;;;;;12.95;94.41;100584.47;5030829;28;20389;-59
2022/10/21 04:14:46;;;;;;;;;;;;;;;12.93;94.78;100583.84;5028640;28;19923;-59
2022/10/21 04:17:11;;;;;;;;;;;;;;;12.91;94.61;100588.53;5030578;28;20339;-59
2022/10/21 04:19:36;;;;;;;;;;;;;;;12.91;94.40;100580.53;5028332;28;19923;-59
2022/10/21 04:22:01;;;;;;;;;;;;;;;12.90;94.65;100585.03;5027382;28;20343;-59
2022/10/21 04:24:26;;;;;;;;;;;;;;;12.88;94.39;100591.59;5031313;28;20474;-58
2022/10/21 04:26:52;;;;;;;;;;;;;;;12.86;94.74;100586.44;5023643;28;20020;-58
2022/10/21 04:29:17;;;;;;;;;;;;;;;12.86;94.59;100593.63;5026321;28;19917;-59
2022/10/21 04:31:42;;;;;;;;;;;;;;;12.84;94.83;100587.66;5029066;28;19948;-59
2022/10/21 04:34:08;;;;;;;;;;;;;;;12.84;94.77;100585.81;5044806;28;19921;-58
2022/10/21 04:36:33;;;;;;;;;;;;;;;12.83;95.01;100580.69;5033678;28;19920;-59
2022/10/21 04:38:58;;;;;;;;;;;;;;;12.82;95.00;100574.53;5033089;28;20332;-59
2022/10/21 04:41:24;;;;;;;;;;;;;;;12.80;94.76;100578.41;5027259;28;19951;-59
2022/10/21 04:43:49;;;;;;;;;;;;;;;12.78;94.84;100575.94;5031521;28;19936;-59
2022/10/21 04:46:15;;;;;;;;;;;;;;;12.78;94.93;100580.44;5029862;28;19948;-58
2022/10/21 04:48:41;;;;;;;;;;;;;;;12.77;94.81;100578.78;5028562;28;20031;-59
2022/10/21 04:51:06;;;;;;;;;;;;;;;12.75;94.94;100581.63;5028351;28;20466;-59
2022/10/21 04:53:31;;;;;;;;;;;;;;;12.74;94.99;100585.31;5030103;28;19927;-58
2022/10/21 04:55:57;;;;;;;;;;;;;;;12.74;95.02;100590.66;5029270;28;19913;-59
2022/10/21 04:58:22;;;;;;;;;;;;;;;12.74;94.68;100589.84;5048381;28;19927;-59
2022/10/21 05:00:48;;;;;;;;;;;;;;;12.71;95.15;100589.16;5041950;28;19913;-59
2022/10/21 05:03:14;;;;;;;;;;;;;;;12.71;95.01;100583.00;5026107;28;19921;-58
2022/10/21 05:05:39;;;;;;;;;;;;;;;12.71;95.07;100583.00;5028207;28;20288;-59
2022/10/21 05:08:04;;;;;;;;;;;;;;;12.71;95.11;100583.84;5027586;28;20482;-59
2022/10/21 05:10:29;;;;;;;;;;;;;;;12.70;95.35;100584.03;5033476;28;19932;-58
2022/10/21 05:12:56;;;;;;;;;;;;;;;12.67;95.25;100585.25;5029798;28;19913;-59
2022/10/21 05:15:21;;;;;;;;;;;;;;;12.67;95.14;100587.91;5025545;28;20915;-57
2022/10/21 05:17:46;;;;;;;;;;;;;;;12.67;95.27;100590.56;5036409;28;20046;-59
2022/10/21 05:20:11;;;;;;;;;;;;;;;12.67;95.41;100587.91;5028347;28;20411;-59
2022/10/21 05:22:36;;;;;;;;;;;;;;;12.66;94.98;100578.25;5030444;28;19917;-59
2022/10/21 05:25:02;;;;;;;;;;;;;;;12.68;95.00;100588.72;5029938;28;19932;-59
2022/10/21 05:27:27;;;;;;;;;;;;;;;12.66;95.34;100588.09;5028247;28;20008;-59
2022/10/21 05:29:52;;;;;;;;;;;;;;;12.64;95.07;100585.63;5025601;28;19925;-59
2022/10/21 05:32:17;;;;;;;;;;;;;;;12.63;95.47;100578.66;5025067;28;19917;-58
2022/10/21 05:34:42;;;;;;;;;;;;;;;12.64;95.28;100568.81;5031851;28;19924;-59
2022/10/21 05:37:08;;;;;;;;;;;;;;;12.63;95.31;100560.00;5028894;28;20291;-59
2022/10/21 05:39:33;;;;;;;;;;;;;;;12.64;95.23;100553.66;5026534;28;20007;-57
2022/10/21 05:41:58;;;;;;;;;;;;;;;12.64;95.28;100550.16;5026693;28;19992;-59
2022/10/21 05:44:23;;;;;;;;;;;;;;;12.64;95.14;100542.16;5029137;28;20309;-59
2022/10/21 05:46:48;;;;;;;;;;;;;;;12.64;94.98;100551.00;5030290;28;20004;-59
2022/10/21 05:49:13;;;;;;;;;;;;;;;12.64;95.34;100542.16;5028851;28;19944;-58
2022/10/21 05:51:39;;;;;;;;;;;;;;;12.63;95.13;100546.69;5027687;28;20012;-59
2022/10/21 05:54:04;;;;;;;;;;;;;;;12.64;95.14;100547.50;5029536;28;19975;-59
2022/10/21 05:56:30;;;;;;;;;;;;;;;12.63;95.14;100540.53;5021774;28;19923;-59
2022/10/21 05:58:55;;;;;;;;;;;;;;;12.62;95.04;100539.69;5028034;28;20004;-59
2022/10/21 06:01:20;;;;;;;;;;;;;;;12.60;95.27;100536.41;5026107;28;20384;-59
2022/10/21 06:03:45;;;;;;;;;;;;;;;12.59;94.94;100539.25;5028117;28;19968;-59
2022/10/21 06:06:10;;;;;;;;;;;;;;;12.57;94.90;100538.63;5027552;28;20301;-59
2022/10/21 06:08:37;;;;;;;;;;;;;;;12.53;95.15;100546.19;5026792;28;19975;-59
2022/10/21 06:11:10;;;;;;;;;;;;;;;12.51;94.99;100547.38;5025244;28;19921;-58
2022/10/21 06:13:36;;;;;;;;;;;;;;;12.51;94.87;100539.41;5020862;28;20391;-59
2022/10/21 06:16:02;;;;;;;;;;;;;;;12.51;95.18;100540.22;5021698;28;19917;-59
2022/10/21 06:18:27;;;;;;;;;;;;;;;12.51;94.99;100537.56;5023095;28;20376;-59
2022/10/21 06:20:53;;;;;;;;;;;;;;;12.52;94.79;100538.38;5023915;28;20391;-59
2022/10/21 06:23:18;;;;;;;;;;;;;;;12.52;95.23;100538.38;5026426;28;19986;-59
2022/10/21 06:25:53;;;;;;;;;;;;;;;12.51;95.15;100545.53;5029545;28;19924;-57
2022/10/21 06:28:18;;;;;;;;;;;;;;;12.53;95.30;100540.03;5024917;28;19917;-59
2022/10/21 06:30:43;;;;;;;;;;;;;;;12.53;95.22;100546.19;5025022;28;19924;-59
2022/10/21 06:33:08;;;;;;;;;;;;;;;12.52;95.33;100544.53;5024161;28;19917;-59
2022/10/21 06:35:33;;;;;;;;;;;;;;;12.53;95.23;100543.50;5031587;28;19979;-59
2022/10/21 06:37:59;;;;;;;;;;;;;;;12.54;95.32;100547.00;5024280;28;19917;-59
2022/10/21 06:40:24;;;;;;;;;;;;;;;12.54;95.53;100545.16;5026035;28;19991;-59
2022/10/21 06:42:49;;;;;;;;;;;;;;;12.54;95.19;100539.00;5023838;28;20012;-59
2022/10/21 06:45:14;;;;;;;;;;;;;;;12.52;95.29;100533.88;5024864;28;20307;-59
2022/10/21 06:47:40;;;;;;;;;;;;;;;12.51;95.24;100548.22;5026987;28;19917;-59
2022/10/21 06:50:05;;;;;;;;;;;;;;;12.49;95.46;100546.75;5024522;28;19928;-59
2022/10/21 06:52:30;;;;;;;;;;;;;;;12.49;95.13;100558.22;5024961;28;19917;-59
2022/10/21 06:54:56;;;;;;;;;;;;;;;12.49;95.30;100566.22;5026988;28;19921;-59
2022/10/21 06:57:21;;;;;;;;;;;;;;;12.48;95.16;100574.41;5022107;28;19921;-59
2022/10/21 06:59:46;;;;;;;;;;;;;;;12.47;95.32;100581.56;5018897;28;20764;-59
2022/10/21 07:02:11;;;;;;;;;;;;;;;12.48;95.20;100591.22;5020982;28;19958;-58
2022/10/21 07:04:36;;;;;;;;;;;;;;;12.49;95.04;100592.84;5026148;28;19921;-59
2022/10/21 07:07:02;;;;;;;;;;;;;;;12.50;95.35;100599.00;5026884;28;20416;-57
2022/10/21 07:09:27;;;;;;;;;;;;;;;12.52;94.92;100603.13;5024768;28;19925;-58
2022/10/21 07:11:52;;;;;;;;;;;;;;;12.53;95.22;100596.78;5027619;28;19925;-59
2022/10/21 07:14:17;;;;;;;;;;;;;;;12.56;94.83;100608.91;5027247;28;19913;-59
2022/10/21 07:16:43;;;;;;;;;;;;;;;12.59;95.24;100611.19;5023269;28;19974;-59
2022/10/21 07:19:08;;;;;;;;;;;;;;;12.62;94.97;100611.63;5025580;28;19917;-58
2022/10/21 07:21:34;;;;;;;;;;;;;;;12.65;95.08;100605.09;5029525;28;20388;-58
2022/10/21 07:24:00;;;;;;;;;;;;;;;12.68;95.22;100618.84;5024866;28;19919;-59
2022/10/21 07:26:26;;;;;;;;;;;;;;;12.72;95.39;100616.63;5030098;28;20375;-59
2022/10/21 07:28:53;;;;;;;;;;;;;;;12.75;95.87;100624.28;5035348;28;19916;-59
2022/10/21 07:31:19;;;;;;;;;;;;;;;12.79;95.83;100627.38;5029966;28;20020;-58
2022/10/21 07:33:45;;;;;;;;;;;;;;;12.83;95.74;100624.16;5032012;28;19913;-59
2022/10/21 07:36:12;;;;;;;;;;;;;;;12.85;95.40;100622.09;5032792;28;20003;-59
2022/10/21 07:38:38;;;;;;;;;;;;;;;12.89;95.73;100627.88;5025324;28;20043;-58
2022/10/21 07:41:03;;;;;;;;;;;;;;;12.92;95.54;100624.81;5030701;28;20004;-58
2022/10/21 07:43:29;;;;;;;;;;;;;;;12.95;95.63;100625.28;5034871;28;19921;-58
2022/10/21 07:45:55;;;;;;;;;;;;;;;12.97;95.59;100628.56;5031385;28;19917;-59
2022/10/21 07:48:22;;;;;;;;;;;;;;;13.02;95.51;100630.69;5029249;28;20372;-58
2022/10/21 07:50:47;;;;;;;;;;;;;;;13.02;95.60;100625.34;5030511;28;20369;-57
2022/10/21 07:53:13;;;;;;;;;;;;;;;13.07;95.43;100627.44;5035475;28;19932;-59
2022/10/21 07:55:38;;;;;;;;;;;;;;;13.10;95.47;100625.22;5034702;28;19917;-59
2022/10/21 07:58:03;;;;;;;;;;;;;;;13.14;95.64;100629.13;5030515;28;20398;-58
2022/10/21 08:00:29;;;;;;;;;;;;;;;13.16;95.58;100631.59;5030478;28;19921;-58
2022/10/21 08:02:55;;;;;;;;;;;;;;;13.18;95.59;100635.75;5031907;28;19917;-59
2022/10/21 08:05:20;;;;;;;;;;;;;;;13.21;95.48;100645.22;5031073;28;20607;-59
2022/10/21 08:07:46;;;;;;;;;;;;;;;13.22;95.87;100637.03;5032252;28;19913;-58
2022/10/21 08:10:11;;;;;;;;;;;;;;;13.24;95.89;100634.97;5028980;28;20794;-59
2022/10/21 08:12:36;;;;;;;;;;;;;;;13.26;95.61;100643.63;5032391;28;20467;-59
2022/10/21 08:15:01;;;;;;;;;;;;;;;13.28;95.83;100644.25;5030771;28;20043;-58
2022/10/21 08:17:26;;;;;;;;;;;;;;;13.29;95.65;100635.22;5038205;28;20269;-59
2022/10/21 08:19:51;;;;;;;;;;;;;;;13.30;95.38;100634.25;5031911;28;19921;-58
2022/10/21 08:22:17;;;;;;;;;;;;;;;13.33;95.55;100631.19;5030846;28;19915;-59
2022/10/21 08:24:42;;;;;;;;;;;;;;;13.35;95.80;100628.31;5030006;28;20292;-59
2022/10/21 08:27:07;;;;;;;;;;;;;;;13.31;95.51;100624.41;5030751;28;20418;-59
2022/10/21 08:29:32;;;;;;;;;;;;;;;13.39;95.56;100620.75;5029634;28;19925;-59
2022/10/21 08:31:57;;;;;;;;;;;;;;;13.40;95.82;100615.22;5028787;28;19971;-59
2022/10/21 08:34:23;;;;;;;;;;;;;;;13.42;96.07;100613.19;5031047;28;19992;-59
2022/10/21 08:36:48;;;;;;;;;;;;;;;13.44;95.84;100620.97;5034473;28;19956;-58
2022/10/21 08:39:13;;;;;;;;;;;;;;;13.47;95.98;100623.25;5029391;28;19996;-59
2022/10/21 08:41:38;;;;;;;;;;;;;;;13.47;96.04;100618.75;5025470;28;20397;-59
2022/10/21 08:44:09;;;;;;;;;;;;;;;13.49;95.85;100621.22;5022297;28;19943;-59
2022/10/21 08:46:38;;;;;;;;;;;;;;;13.50;96.18;100625.53;5029963;28;20269;-59
2022/10/21 08:49:10;;;;;;;;;;;;;;;13.51;95.72;100629.84;5031122;28;19925;-58
2022/10/21 08:51:39;;;;;;;;;;;;;;;13.54;96.01;100640.94;5027726;28;19936;-57
2022/10/21 08:54:05;;;;;;;;;;;;;;;13.55;96.09;100645.28;5027564;28;19913;-58
2022/10/21 08:56:31;;;;;;;;;;;;;;;13.56;96.11;100657.59;5026223;28;19917;-58
2022/10/21 08:58:56;;;;;;;;;;;;;;;13.59;96.08;100664.41;5030498;28;20364;-59
2022/10/21 09:01:27;;;;;;;;;;;;;;;13.61;96.67;100659.69;5028500;28;19917;-59
2022/10/21 09:04:01;;;;;;;;;;;;;;;13.63;97.00;100644.31;5029597;28;19917;-58
2022/10/21 09:06:33;;;;;;;;;;;;;;;13.66;97.39;100659.94;5029851;28;20442;-59
2022/10/21 09:09:22;;;;;;;;;;;;;;;13.71;97.59;100646.81;5029088;28;20410;-58
2022/10/21 09:11:50;;;;;;;;;;;;;;;13.77;98.89;100659.38;5032707;28;20450;-59
2022/10/21 09:14:15;;;;;;;;;;;;;;;13.86;99.80;100658.19;5036044;28;19923;-58
2022/10/21 09:16:40;;;;;;;;;;;;;;;13.89;100.00;100655.16;5034036;28;19913;-58
2022/10/21 09:19:14;;;;;;;;;;;;;;;14.05;100.00;100655.84;5033426;28;19956;-59
2022/10/21 09:21:52;;;;;;;;;;;;;;;14.12;100.00;100654.84;5025467;28;19923;-57
2022/10/21 09:24:36;;;;;;;;;;;;;;;14.21;100.00;100663.53;5023610;28;20285;-58
2022/10/21 09:27:02;;;;;;;;;;;;;;;14.28;100.00;100653.69;5029501;28;19979;-59
2022/10/21 09:29:27;;;;;;;;;;;;;;;14.35;100.00;100659.06;5031523;28;20320;-59
2022/10/21 09:31:55;;;;;;;;;;;;;;;14.40;100.00;100659.28;5020063;28;19921;-59
2022/10/21 09:34:47;;;;;;;;;;;;;;;14.45;100.00;100655.00;5027826;28;20563;-58
2022/10/21 09:37:15;;;;;;;;;;;;;;;14.52;100.00;100647.88;5010929;28;19918;-59
2022/10/21 09:39:46;;;;;;;;;;;;;;;14.56;100.00;100641.09;5032416;28;19960;-59
2022/10/21 09:42:12;;;;;;;;;;;;;;;14.68;100.00;100632.47;5023556;28;19917;-59
2022/10/21 09:44:37;;;;;;;;;;;;;;;14.77;99.71;100626.75;5033178;28;19913;-59
2022/10/21 09:47:12;;;;;;;;;;;;;;;14.88;99.31;100630.66;5021662;28;19921;-59
2022/10/21 09:49:37;;;;;;;;;;;;;;;14.97;98.95;100625.94;5031175;28;19917;-59
2022/10/21 09:52:03;;;;;;;;;;;;;;;15.04;98.55;100627.63;5015503;28;19918;-58
2022/10/21 09:54:32;;;;;;;;;;;;;;;15.11;97.98;100628.44;5028761;28;19992;-59
2022/10/21 09:57:00;;;;;;;;;;;;;;;15.19;97.35;100625.53;5028867;28;19970;-58
2022/10/21 09:59:25;;;;;;;;;;;;;;;15.26;97.04;100624.72;5015808;28;19953;-59
2022/10/21 10:01:51;;;;;;;;;;;;;;;15.31;96.87;100625.72;5018958;28;20518;-58
2022/10/21 10:04:28;;;;;;;;;;;;;;;15.40;96.19;100635.22;5022945;28;19917;-59
2022/10/21 10:06:53;;;;;;;;;;;;;;;15.48;95.79;100637.66;5028305;28;20424;-59
2022/10/21 10:09:31;;;;;;;;;;;;;;;15.54;95.81;100638.69;5030188;28;19925;-59
2022/10/21 10:11:56;;;;;;;;;;;;;;;15.60;95.94;100645.91;5029488;28;20612;-59
2022/10/21 10:14:21;;;;;;;;;;;;;;;15.65;95.78;100646.13;5028174;28;19917;-59
2022/10/21 10:16:47;;;;;;;;;;;;;;;15.68;95.86;100648.38;5028039;28;19971;-59
2022/10/21 10:19:15;;;;;;;;;;;;;;;15.74;95.75;100660.13;5033183;28;19917;-59
2022/10/21 10:21:40;;;;;;;;;;;;;;;15.78;95.42;100662.16;5026276;28;19956;-58
2022/10/21 10:24:14;;;;;;;;;;;;;;;15.84;95.15;100654.31;5034683;28;19952;-59
2022/10/21 10:26:41;;;;;;;;;;;;;;;15.88;94.74;100661.72;5032583;28;19917;-59
2022/10/21 10:29:15;;;;;;;;;;;;;;;15.95;94.60;100661.72;5037533;28;19918;-57
2022/10/21 10:31:45;;;;;;;;;;;;;;;16.00;94.52;100664.59;5031071;28;19940;-59
2022/10/21 10:34:18;;;;;;;;;;;;;;;16.06;94.34;100659.22;5024634;28;20282;-59
2022/10/21 10:36:43;;;;;;;;;;;;;;;16.14;94.16;100668.88;5028259;28;19970;-58
2022/10/21 10:39:17;;;;;;;;;;;;;;;16.21;93.98;100663.50;5041495;28;20004;-58
2022/10/21 10:41:45;;;;;;;;;;;;;;;16.28;94.30;100667.81;5023829;28;20499;-59
2022/10/21 10:44:18;;;;;;;;;;;;;;;16.36;93.83;100672.91;5023957;28;19913;-58
2022/10/21 10:46:44;;;;;;;;;;;;;;;16.42;93.49;100673.91;5015233;28;19921;-59
2022/10/21 10:49:12;;;;;;;;;;;;;;;16.47;93.33;100674.09;5019859;28;19917;-58
2022/10/21 10:51:39;;;;;;;;;;;;;;;16.50;93.37;100670.19;5028455;28;19924;-57
2022/10/21 10:54:07;;;;;;;;;;;;;;;16.54;93.26;100677.59;5028251;28;20394;-59
2022/10/21 10:56:47;;;;;;;;;;;;;;;16.58;92.90;100676.13;5023803;28;19917;-59
2022/10/21 10:59:21;;;;;;;;;;;;;;;16.59;92.36;100674.25;5022309;28;19920;-59
2022/10/21 11:02:03;;;;;;;;;;;;;;;16.64;92.78;100677.13;5018060;28;19920;-59
2022/10/21 11:04:31;;;;;;;;;;;;;;;16.68;92.76;100673.81;5023354;28;19996;-59
2022/10/21 11:07:01;;;;;;;;;;;;;;;16.71;92.69;100656.47;5020497;28;20312;-59
2022/10/21 11:09:26;;;;;;;;;;;;;;;16.81;92.23;100658.72;5028204;28;19979;-59
2022/10/21 11:11:53;;;;;;;;;;;;;;;16.89;91.67;100658.44;5027668;28;20361;-59
2022/10/21 11:14:19;;;;;;;;;;;;;;;16.92;91.08;100648.09;5032979;28;20324;-59
2022/10/21 11:16:50;;;;;;;;;;;;;;;16.97;91.43;100650.13;5027358;28;20380;-59
2022/10/21 11:19:17;;;;;;;;;;;;;;;16.98;90.67;100660.63;5025191;28;19921;-58
2022/10/21 11:21:49;;;;;;;;;;;;;;;17.04;90.35;100656.25;5031111;28;19924;-59
2022/10/21 11:24:33;;;;;;;;;;;;;;;17.12;89.76;100655.19;5035535;28;19968;-59
2022/10/21 11:26:58;;;;;;;;;;;;;;;17.20;89.87;100652.25;5027539;28;19921;-59
2022/10/21 11:29:34;;;;;;;;;;;;;;;17.26;88.58;100656.72;5028994;28;19935;-59
2022/10/21 11:32:19;;;;;;;;;;;;;;;17.30;88.32;100665.97;5025629;28;19921;-59
2022/10/21 11:34:59;;;;;;;;;;;;;;;17.39;88.39;100659.31;5024762;28;19941;-58
2022/10/21 11:37:48;;;;;;;;;;;;;;;17.51;88.24;100660.22;5028416;28;19917;-59
2022/10/21 11:40:17;;;;;;;;;;;;;;;17.66;88.26;100657.22;5020468;28;20363;-59
2022/10/21 11:42:43;;;;;;;;;;;;;;;17.81;87.46;100656.88;5038195;28;19920;-58
2022/10/21 11:45:28;;;;;;;;;;;;;;;17.91;86.51;100649.13;5021034;28;19920;-59
2022/10/21 11:48:02;;;;;;;;;;;;;;;18.03;86.41;100655.41;5027733;28;19921;-59
2022/10/21 11:50:40;;;;;;;;;;;;;;;18.07;85.38;100655.78;5026436;28;20385;-59
2022/10/21 11:53:24;;;;;;;;;;;;;;;18.09;85.05;100646.44;5034725;28;19972;-59
2022/10/21 11:56:07;;;;;;;;;;;;;;;18.08;84.19;100644.78;5028189;28;19945;-59
2022/10/21 11:58:39;;;;;;;;;;;;;;;18.07;84.29;100640.47;5028558;28;19924;-57
2022/10/21 12:01:22;;;;;;;;;;;;;;;18.07;84.21;100653.09;5025165;28;19920;-57
2022/10/21 12:04:01;;;;;;;;;;;;;;;17.99;83.23;100648.84;5026258;28;20048;-58
2022/10/21 12:06:45;;;;;;;;;;;;;;;17.88;82.44;100655.75;5025920;28;19921;-58
2022/10/21 12:09:14;;;;;;;;;;;;;;;17.84;82.51;100656.44;5024338;28;20098;-59
2022/10/21 12:11:45;;;;;;;;;;;;;;;17.85;83.25;100660.75;5029605;28;20008;-59
2022/10/21 12:14:28;;;;;;;;;;;;;;;17.86;83.01;100648.97;5027901;28;20371;-59
2022/10/21 12:16:56;;;;;;;;;;;;;;;17.89;83.57;100648.50;5029769;28;20418;-58
2022/10/21 12:19:22;;;;;;;;;;;;;;;17.89;83.11;100643.97;5031467;28;19917;-59
2022/10/21 12:21:47;;;;;;;;;;;;;;;17.94;83.23;100643.31;5029328;28;19924;-59
2022/10/21 12:24:32;;;;;;;;;;;;;;;18.03;83.10;100649.22;5030927;28;19913;-58
2022/10/21 12:27:03;;;;;;;;;;;;;;;18.08;82.69;100647.47;5023429;28;19921;-58
2022/10/21 12:29:42;;;;;;;;;;;;;;;18.13;82.61;100644.13;5030482;28;19921;-58
2022/10/21 12:32:19;;;;;;;;;;;;;;;18.15;82.32;100652.78;5031598;28;19948;-59
2022/10/21 12:34:44;;;;;;;;;;;;;;;18.16;82.94;100639.13;5030558;28;19917;-59
2022/10/21 12:37:28;;;;;;;;;;;;;;;18.17;82.48;100640.75;5036699;28;19920;-59
2022/10/21 12:40:08;;;;;;;;;;;;;;;18.16;82.24;100644.47;5027624;28;20269;-58